Time;durP1;ratioP1;P1;durP2;ratioP2;P2;SDS_P1;SDS_P2;PMS_P1;PMS_P2;Temp;Humidity;BMP_temperature;BMP_pressure;BME280_temperature;BME280_humidity;BME280_pressure;Samples;Min_cycle;Max_cycle;Signal;HPM_P1;HPM_P2
2023/10/13 00:04:46;;;;;;;21.08;14.30;;;;;17.30;100711.00;;;;10408254;28;20230;-73
2023/10/13 00:09:48;;;;;;;22.60;14.18;;;;;17.30;100705.00;;;;10407219;28;20226;-70
2023/10/13 00:14:50;;;;;;;22.58;15.20;;;;;17.30;100708.00;;;;10411110;28;20549;-72
2023/10/13 00:19:52;;;;;;;20.55;15.15;;;;;17.30;100690.00;;;;10412714;28;20268;-72
2023/10/13 00:24:58;;;;;;;21.13;15.13;;;;;17.30;100686.00;;;;10391653;28;20416;-72
2023/10/13 00:30:40;;;;;;;28.92;17.58;;;;;17.30;100681.00;;;;10417993;28;20944;-70
2023/10/13 00:35:35;;;;;;;27.27;16.73;;;;;17.30;100678.00;;;;10392421;28;20935;-71
2023/10/13 00:45:42;;;;;;;30.48;20.23;;;;;17.30;100666.00;;;;10410576;28;20214;-72
2023/10/13 00:50:47;;;;;;;37.22;22.67;;;;;17.30;100662.00;;;;10418484;28;20222;-71
2023/10/13 00:55:49;;;;;;;29.92;22.65;;;;;17.30;100655.00;;;;10416617;28;20298;-71
2023/10/13 01:00:56;;;;;;;38.22;23.65;;;;;17.30;100641.00;;;;10421211;28;20202;-72
2023/10/13 01:05:58;;;;;;;43.35;26.02;;;;;17.30;100628.00;;;;10413232;28;20272;-70
2023/10/13 01:11:01;;;;;;;41.83;25.55;;;;;17.30;100630.00;;;;10415504;28;20222;-72
2023/10/13 01:16:04;;;;;;;42.75;27.40;;;;;17.30;100621.00;;;;10417876;28;20240;-70
2023/10/13 01:21:07;;;;;;;41.67;27.90;;;;;17.30;100608.00;;;;10404796;28;20298;-70
2023/10/13 01:26:09;;;;;;;42.95;29.23;;;;;17.30;100604.00;;;;10418802;28;20238;-72
2023/10/13 01:31:13;;;;;;;46.85;30.00;;;;;17.40;100586.00;;;;10422983;28;20227;-72
2023/10/13 01:36:15;;;;;;;42.15;29.25;;;;;17.40;100581.00;;;;10412280;28;20294;-72
2023/10/13 01:41:19;;;;;;;37.78;28.15;;;;;17.50;100566.00;;;;10411032;28;20226;-71
2023/10/13 01:46:21;;;;;;;41.22;29.13;;;;;17.50;100561.00;;;;10419094;28;20218;-71
2023/10/13 01:51:23;;;;;;;42.67;27.30;;;;;17.50;100543.00;;;;10418374;28;20252;-70
2023/10/13 01:56:30;;;;;;;44.25;28.58;;;;;17.50;100537.00;;;;10418686;28;20215;-70
2023/10/13 02:01:35;;;;;;;42.22;25.55;;;;;17.50;100521.00;;;;10403750;28;20911;-71
2023/10/13 02:06:37;;;;;;;39.75;23.67;;;;;17.50;100523.00;;;;10414501;28;20269;-71
2023/10/13 02:11:41;;;;;;;34.22;21.48;;;;;17.50;100514.00;;;;10411448;28;20928;-71
2023/10/13 02:16:46;;;;;;;29.88;21.23;;;;;17.50;100509.00;;;;10404814;28;20211;-71
2023/10/13 02:21:58;;;;;;;33.90;19.25;;;;;17.50;100497.00;;;;10416690;28;20205;-70
2023/10/13 02:27:04;;;;;;;31.67;18.80;;;;;17.50;100487.00;;;;10413785;28;20213;-71
2023/10/13 02:32:14;;;;;;;25.17;16.95;;;;;17.50;100474.00;;;;10415343;28;21084;-71
2023/10/13 02:37:19;;;;;;;26.55;17.02;;;;;17.50;100473.00;;;;10407367;28;20212;-72
2023/10/13 02:42:24;;;;;;;28.52;18.08;;;;;17.50;100476.00;;;;10405168;28;20276;-71
2023/10/13 02:47:26;;;;;;;27.13;17.60;;;;;17.50;100460.00;;;;10412488;28;20900;-70
2023/10/13 02:52:34;;;;;;;30.80;17.58;;;;;17.60;100451.00;;;;10416071;28;20312;-71
2023/10/13 02:57:40;;;;;;;23.63;15.60;;;;;17.60;100448.00;;;;10399963;28;20225;-70
2023/10/13 03:02:53;;;;;;;29.05;15.13;;;;;17.50;100437.00;;;;10411825;28;20213;-71
2023/10/13 03:07:58;;;;;;;20.35;14.73;;;;;17.50;100427.00;;;;10407072;28;20211;-71
2023/10/13 03:13:01;;;;;;;25.48;14.65;;;;;17.50;100410.00;;;;10415833;28;20570;-72
2023/10/13 03:18:04;;;;;;;27.85;15.00;;;;;17.50;100404.00;;;;10406430;28;20212;-71
2023/10/13 03:23:09;;;;;;;23.75;13.98;;;;;17.60;100414.00;;;;10408041;28;20283;-71
2023/10/13 03:28:13;;;;;;;23.55;13.75;;;;;17.60;100406.00;;;;10411116;28;20218;-71
2023/10/13 03:33:25;;;;;;;22.58;14.05;;;;;17.60;100409.00;;;;10409038;28;20226;-72
2023/10/13 03:38:27;;;;;;;26.25;13.15;;;;;17.60;100404.00;;;;10414579;28;20739;-71
2023/10/13 03:43:29;;;;;;;23.77;13.15;;;;;17.60;100406.00;;;;10409087;28;20281;-72
2023/10/13 03:48:31;;;;;;;33.25;12.40;;;;;17.60;100401.00;;;;10413375;28;20225;-71
2023/10/13 03:53:35;;;;;;;28.30;13.02;;;;;17.70;100396.00;;;;10405410;28;20581;-72
2023/10/13 03:58:47;;;;;;;20.75;12.25;;;;;17.70;100380.00;;;;10410868;28;20206;-70
2023/10/13 04:04:03;;;;;;;21.83;11.70;;;;;17.70;100381.00;;;;10407088;28;21186;-70
2023/10/13 04:25:34;;;;;;;30.08;11.80;;;;;17.70;100376.00;;;;10407274;28;20595;-70
2023/10/13 04:30:38;;;;;;;27.05;11.45;;;;;17.70;100364.00;;;;10401837;28;20238;-72
2023/10/13 04:35:47;;;;;;;25.63;11.52;;;;;17.60;100353.00;;;;10412102;28;20214;-72
2023/10/13 04:41:02;;;;;;;16.48;10.43;;;;;17.60;100341.00;;;;10406016;28;20653;-70
2023/10/13 04:51:58;;;;;;;26.98;10.27;;;;;17.50;100283.00;;;;10393013;28;20367;-71
2023/10/13 06:32:53;;;;;;;17.55;8.73;;;;;17.60;100158.00;;;;10418194;28;20241;-71
2023/10/13 06:38:00;;;;;;;18.65;9.80;;;;;17.70;100158.00;;;;10414817;28;20203;-71
2023/10/13 06:43:21;;;;;;;22.33;8.75;;;;;17.70;100156.00;;;;10413160;28;20910;-71
2023/10/13 06:48:26;;;;;;;16.92;8.90;;;;;17.80;100152.00;;;;10411665;28;20214;-71
2023/10/13 06:53:29;;;;;;;20.15;9.32;;;;;17.90;100153.00;;;;10408105;28;20352;-71
2023/10/13 06:58:32;;;;;;;23.15;10.13;;;;;18.00;100146.00;;;;10398499;28;21221;-70
2023/10/13 07:03:34;;;;;;;17.55;8.90;;;;;18.10;100147.00;;;;10409712;28;20198;-71
2023/10/13 07:08:37;;;;;;;17.13;8.60;;;;;18.20;100147.00;;;;10414589;28;20211;-71
2023/10/13 07:13:39;;;;;;;17.45;8.88;;;;;18.20;100140.00;;;;10410904;28;20288;-71
2023/10/13 07:18:49;;;;;;;21.75;9.18;;;;;18.20;100135.00;;;;10399367;28;20195;-71
2023/10/13 07:24:00;;;;;;;17.98;8.98;;;;;18.30;100145.00;;;;10404253;28;20227;-71
2023/10/13 07:29:02;;;;;;;14.73;8.65;;;;;18.60;100138.00;;;;10407487;28;20218;-72
2023/10/13 07:34:09;;;;;;;14.98;8.13;;;;;18.80;100136.00;;;;10403065;28;20252;-70
2023/10/13 07:39:21;;;;;;;16.77;8.05;;;;;18.80;100129.00;;;;10409807;28;20295;-71
2023/10/13 07:44:24;;;;;;;18.52;8.27;;;;;18.70;100134.00;;;;10411371;28;20297;-70
2023/10/13 07:49:31;;;;;;;18.60;7.72;;;;;18.80;100143.00;;;;10408437;28;20321;-71
2023/10/13 07:54:34;;;;;;;19.95;8.68;;;;;19.00;100142.00;;;;10397040;28;20202;-70
2023/10/13 07:59:46;;;;;;;16.38;8.30;;;;;19.30;100119.00;;;;10413981;28;20209;-71
2023/10/13 08:04:48;;;;;;;16.38;8.02;;;;;19.50;100114.00;;;;10412555;28;20210;-70
2023/10/13 08:09:51;;;;;;;22.00;8.43;;;;;19.80;100118.00;;;;10405062;28;20996;-72
2023/10/13 08:15:11;;;;;;;11.00;7.63;;;;;19.80;100109.00;;;;10408970;28;20207;-71
2023/10/13 08:20:16;;;;;;;14.73;7.97;;;;;20.10;100102.00;;;;10408418;28;20206;-70
2023/10/13 08:25:24;;;;;;;15.05;7.00;;;;;20.20;100090.00;;;;10405827;28;20206;-70
2023/10/13 08:30:28;;;;;;;19.58;7.22;;;;;20.00;100092.00;;;;10400551;28;20218;-71
2023/10/13 08:45:58;;;;;;;16.17;7.85;;;;;20.40;100090.00;;;;10407813;28;20210;-72
2023/10/13 08:51:11;;;;;;;14.63;7.10;;;;;20.60;100077.00;;;;10409964;28;20767;-71
2023/10/13 09:01:35;;;;;;;21.10;7.97;;;;;20.60;100084.00;;;;10413095;28;20297;-70
2023/10/13 09:06:37;;;;;;;15.65;7.10;;;;;20.60;100086.00;;;;10411898;28;20206;-70
2023/10/13 09:12:03;;;;;;;18.52;7.30;;;;;20.60;100082.00;;;;10416368;28;20230;-71
2023/10/13 09:17:11;;;;;;;12.85;7.22;;;;;20.60;100082.00;;;;10413714;28;20915;-70
2023/10/13 09:22:27;;;;;;;15.88;7.53;;;;;20.70;100073.00;;;;10416688;28;20302;-71
2023/10/13 09:27:33;;;;;;;19.15;6.97;;;;;21.10;100066.00;;;;10406363;28;20232;-72
2023/10/13 09:32:50;;;;;;;14.68;7.30;;;;;21.20;100078.00;;;;10413310;28;20230;-72
2023/10/13 09:37:56;;;;;;;24.67;7.65;;;;;21.10;100062.00;;;;10412479;28;20229;-70
2023/10/13 09:43:04;;;;;;;11.52;6.45;;;;;21.10;100047.00;;;;10420145;28;20216;-70
2023/10/13 09:48:16;;;;;;;18.45;6.80;;;;;21.40;100047.00;;;;10434399;28;20213;-71
2023/10/13 09:53:19;;;;;;;15.68;6.82;;;;;21.70;100052.00;;;;10419479;28;20873;-70
2023/10/13 09:58:28;;;;;;;12.60;6.38;;;;;21.70;100047.00;;;;10409086;28;20723;-70
2023/10/13 10:08:48;;;;;;;12.45;7.13;;;;;21.90;100050.00;;;;10407358;28;20297;-71
2023/10/13 10:13:58;;;;;;;17.33;6.22;;;;;21.90;100043.00;;;;10417262;28;20204;-70
2023/10/13 10:19:01;;;;;;;14.77;6.38;;;;;21.90;100043.00;;;;10412921;28;20272;-71
2023/10/13 10:24:38;;;;;;;17.13;6.30;;;;;22.20;100032.00;;;;10408826;28;20604;-70
2023/10/13 10:29:53;;;;;;;16.00;6.50;;;;;22.50;100034.00;;;;10382547;28;20258;-69
2023/10/13 10:35:14;;;;;;;18.90;6.68;;;;;22.70;100036.00;;;;10444262;28;20221;-72
2023/10/13 10:46:00;;;;;;;16.42;7.10;;;;;22.80;100023.00;;;;10365734;28;20305;-72
2023/10/13 10:56:25;;;;;;;18.35;6.30;;;;;23.50;100017.00;;;;10409877;28;20218;-72
2023/10/13 11:01:46;;;;;;;12.85;6.50;;;;;23.80;100014.00;;;;10415701;28;20207;-70
2023/10/13 11:06:57;;;;;;;17.25;6.97;;;;;23.70;100003.00;;;;10410031;28;20205;-71
2023/10/13 11:12:05;;;;;;;13.70;6.13;;;;;23.40;100002.00;;;;10382714;28;20839;-70
2023/10/13 11:17:18;;;;;;;15.70;6.60;;;;;23.70;99994.00;;;;10410238;28;20289;-71
2023/10/13 11:22:36;;;;;;;18.63;6.35;;;;;23.90;99996.00;;;;10409047;28;20858;-72
2023/10/13 11:33:05;;;;;;;20.73;6.82;;;;;24.20;99987.00;;;;10404905;28;20276;-72
2023/10/13 11:38:15;;;;;;;15.27;6.82;;;;;24.30;99966.00;;;;10407322;28;20940;-71
2023/10/13 11:43:17;;;;;;;17.05;6.80;;;;;24.40;99968.00;;;;10409807;28;20268;-70
2023/10/13 11:48:33;;;;;;;12.98;6.10;;;;;24.60;99947.00;;;;10411682;28;21994;-72
2023/10/13 11:53:36;;;;;;;17.65;6.88;;;;;24.80;99954.00;;;;10391944;28;20857;-71
2023/10/13 11:58:39;;;;;;;18.60;6.63;;;;;24.80;99951.00;;;;10402871;28;20244;-71
2023/10/13 12:09:52;;;;;;;20.45;6.50;;;;;24.50;99951.00;;;;10409292;28;20205;-70
2023/10/13 12:14:37;;;;;;;15.20;6.70;;;;;23.90;99945.00;;;;10402687;28;20226;-72
2023/10/13 12:19:40;;;;;;;11.88;5.45;;;;;23.60;99947.00;;;;10414198;28;20261;-70
2023/10/13 12:24:42;;;;;;;19.38;6.10;;;;;23.30;99933.00;;;;10401425;28;20218;-70
2023/10/13 12:29:48;;;;;;;16.42;5.60;;;;;23.20;99946.00;;;;10406585;28;20229;-71
2023/10/13 12:50:44;;;;;;;17.90;5.50;;;;;22.30;99959.00;;;;10414079;28;20213;-70
2023/10/13 12:55:46;;;;;;;13.77;6.70;;;;;22.40;99931.00;;;;10415556;28;20210;-69
2023/10/13 13:00:48;;;;;;;12.27;5.43;;;;;22.60;99929.00;;;;10426219;28;20872;-72
2023/10/13 13:05:55;;;;;;;13.18;5.85;;;;;23.00;99910.00;;;;10421626;28;20198;-72
2023/10/13 13:10:57;;;;;;;15.30;5.72;;;;;23.30;99931.00;;;;10418186;28;20222;-70
2023/10/13 13:16:00;;;;;;;13.48;5.90;;;;;23.50;99928.00;;;;10412786;28;20206;-72
2023/10/13 13:21:06;;;;;;;11.55;5.38;;;;;23.80;99908.00;;;;10410938;28;20210;-71
2023/10/13 13:26:15;;;;;;;13.85;5.38;;;;;23.60;99912.00;;;;10401445;28;20304;-70
2023/10/13 13:31:26;;;;;;;8.82;5.30;;;;;23.70;99912.00;;;;10415888;28;20225;-70
2023/10/13 13:36:29;;;;;;;16.40;5.50;;;;;23.40;99910.00;;;;10412562;28;20855;-71
2023/10/13 13:41:33;;;;;;;17.00;5.47;;;;;23.40;99895.00;;;;10416564;28;20217;-72
2023/10/13 13:46:40;;;;;;;9.73;5.03;;;;;23.60;99896.00;;;;10417415;28;20564;-71
2023/10/13 13:51:51;;;;;;;13.55;5.20;;;;;23.50;99882.00;;;;10409608;28;20222;-72
2023/10/13 13:56:53;;;;;;;12.55;5.07;;;;;23.40;99896.00;;;;10413924;28;20305;-72
2023/10/13 14:01:59;;;;;;;11.70;5.22;;;;;23.40;99878.00;;;;10415376;28;20252;-73
2023/10/13 14:07:06;;;;;;;14.07;5.85;;;;;23.40;99880.00;;;;10415310;28;20288;-70
2023/10/13 14:12:29;;;;;;;12.13;5.15;;;;;23.40;99900.00;;;;10411191;28;20214;-70
2023/10/13 14:17:35;;;;;;;15.07;5.47;;;;;23.30;99889.00;;;;10418460;28;20205;-72
2023/10/13 14:22:37;;;;;;;11.60;6.00;;;;;23.30;99883.00;;;;10420468;28;20244;-70
2023/10/13 14:27:40;;;;;;;10.32;5.57;;;;;23.20;99871.00;;;;10419460;28;20233;-72
2023/10/13 14:32:42;;;;;;;8.02;5.82;;;;;22.90;99892.00;;;;10404916;28;21132;-71
2023/10/13 14:37:44;;;;;;;12.50;5.03;;;;;22.70;99892.00;;;;10409425;28;20347;-71
2023/10/13 14:42:46;;;;;;;12.45;5.57;;;;;22.50;99889.00;;;;10416338;28;20252;-71
2023/10/13 14:47:48;;;;;;;11.48;5.45;;;;;22.20;99877.00;;;;10414476;28;20289;-70
2023/10/13 14:52:51;;;;;;;10.32;5.75;;;;;22.00;99880.00;;;;10425682;28;20231;-71
2023/10/13 14:57:53;;;;;;;12.25;5.60;;;;;21.80;99884.00;;;;10419051;28;20229;-70
2023/10/13 15:02:55;;;;;;;11.93;5.65;;;;;21.60;99879.00;;;;10402836;28;20363;-72
2023/10/13 15:07:57;;;;;;;11.90;5.75;;;;;21.20;99869.00;;;;10398228;28;20230;-72
2023/10/13 15:12:59;;;;;;;13.23;6.40;;;;;21.00;99866.00;;;;10391174;28;20363;-70
2023/10/13 15:18:01;;;;;;;7.53;5.15;;;;;20.90;99853.00;;;;10394543;28;20839;-72
2023/10/13 15:23:05;;;;;;;10.77;5.45;;;;;20.90;99853.00;;;;10403365;28;21079;-69
2023/10/13 15:28:09;;;;;;;12.13;5.97;;;;;20.80;99826.00;;;;10402763;28;20217;-69
2023/10/13 15:33:12;;;;;;;13.52;5.60;;;;;20.70;99806.00;;;;10397990;28;20260;-71
2023/10/13 15:38:15;;;;;;;9.75;5.38;;;;;20.60;99795.00;;;;10409802;28;20214;-71
2023/10/13 15:43:17;;;;;;;12.45;5.57;;;;;20.50;99790.00;;;;10400369;28;20214;-70
2023/10/13 15:48:22;;;;;;;20.63;5.10;;;;;20.50;99798.00;;;;10394642;28;20354;-68
2023/10/13 15:53:27;;;;;;;10.90;5.93;;;;;20.60;99776.00;;;;10393689;28;20972;-71
2023/10/13 15:58:29;;;;;;;15.00;5.78;;;;;20.70;99768.00;;;;10357053;28;20202;-70
2023/10/13 16:03:30;;;;;;;9.95;5.47;;;;;20.70;99751.00;;;;10342054;28;20285;-71
2023/10/13 16:08:32;;;;;;;15.77;5.72;;;;;20.60;99757.00;;;;10327069;28;20781;-72
2023/10/13 16:13:36;;;;;;;15.10;6.18;;;;;20.50;99764.00;;;;10340345;28;21002;-71
2023/10/13 16:18:38;;;;;;;10.50;5.22;;;;;20.50;99750.00;;;;10344390;28;20245;-72
2023/10/13 16:23:50;;;;;;;12.90;6.40;;;;;20.30;99744.00;;;;10341722;28;20207;-69
2023/10/13 16:28:53;;;;;;;11.65;6.40;;;;;19.50;99753.00;;;;10338376;28;20257;-70
2023/10/13 16:33:58;;;;;;;15.60;6.90;;;;;19.00;99770.00;;;;10340757;28;20230;-70
2023/10/13 16:39:01;;;;;;;14.77;6.93;;;;;18.70;99794.00;;;;10341897;28;20210;-70
2023/10/13 16:44:09;;;;;;;15.20;6.88;;;;;18.40;99766.00;;;;10344809;28;20275;-71
2023/10/13 16:49:11;;;;;;;14.15;8.25;;;;;18.10;99758.00;;;;10348196;28;21047;-72
2023/10/13 16:54:14;;;;;;;14.70;7.68;;;;;18.00;99740.00;;;;10351576;28;20249;-72
2023/10/13 16:59:16;;;;;;;13.85;7.65;;;;;17.90;99731.00;;;;10330077;28;21376;-70
2023/10/13 17:04:19;;;;;;;17.77;7.80;;;;;17.90;99733.00;;;;10349293;28;20209;-72
2023/10/13 17:09:24;;;;;;;15.70;7.40;;;;;17.90;99725.00;;;;10345676;28;20720;-72
2023/10/13 17:14:26;;;;;;;15.65;7.97;;;;;17.90;99711.00;;;;10348360;28;20584;-70
2023/10/13 17:19:28;;;;;;;14.45;7.13;;;;;17.80;99699.00;;;;10348349;28;20206;-72
2023/10/13 17:24:31;;;;;;;15.07;7.40;;;;;17.90;99701.00;;;;10327704;28;20238;-72
2023/10/13 17:29:35;;;;;;;14.00;7.93;;;;;17.90;99680.00;;;;10347182;28;20302;-70
2023/10/13 17:34:37;;;;;;;18.42;8.00;;;;;18.10;99680.00;;;;10347591;28;20263;-72
2023/10/13 17:39:39;;;;;;;14.45;7.72;;;;;18.10;99680.00;;;;10352326;28;20256;-72
2023/10/13 17:44:42;;;;;;;11.77;7.28;;;;;18.10;99677.00;;;;10346156;28;20213;-72
2023/10/13 17:49:43;;;;;;;15.82;8.05;;;;;18.20;99674.00;;;;10353498;28;20206;-70
2023/10/13 17:54:46;;;;;;;11.95;6.90;;;;;18.20;99684.00;;;;10350132;28;20308;-70
2023/10/13 17:59:48;;;;;;;13.00;7.35;;;;;18.30;99675.00;;;;10355333;28;20925;-70
2023/10/13 18:04:50;;;;;;;15.98;7.57;;;;;18.40;99667.00;;;;10357906;28;20915;-70
2023/10/13 18:09:52;;;;;;;17.35;7.60;;;;;18.60;99666.00;;;;10354181;28;20209;-70
2023/10/13 18:14:56;;;;;;;12.85;6.88;;;;;18.70;99678.00;;;;10353761;28;20238;-70
2023/10/13 18:19:59;;;;;;;17.88;6.93;;;;;18.80;99704.00;;;;10351289;28;20210;-70
2023/10/13 18:25:01;;;;;;;19.25;7.97;;;;;18.90;99705.00;;;;10350643;28;20202;-69
2023/10/13 18:30:03;;;;;;;19.15;8.73;;;;;18.70;99690.00;;;;10350449;28;20206;-70
2023/10/13 18:35:08;;;;;;;17.35;10.43;;;;;18.50;99679.00;;;;10350587;28;20276;-69
2023/10/13 18:40:12;;;;;;;21.75;11.40;;;;;18.40;99666.00;;;;10350073;28;20214;-70
2023/10/13 18:45:19;;;;;;;19.83;10.73;;;;;18.40;99671.00;;;;10348320;28;20213;-68
2023/10/13 18:50:25;;;;;;;17.27;10.45;;;;;18.50;99665.00;;;;10349577;28;21038;-71
2023/10/13 18:55:28;;;;;;;19.65;8.77;;;;;18.70;99655.00;;;;10352482;28;20209;-70
2023/10/13 19:00:33;;;;;;;24.52;8.73;;;;;18.70;99653.00;;;;10345530;28;20217;-71
2023/10/13 19:05:35;;;;;;;17.42;9.30;;;;;18.70;99639.00;;;;10337158;28;20201;-70
2023/10/13 19:10:37;;;;;;;23.27;9.55;;;;;18.70;99636.00;;;;10347456;28;20222;-70
2023/10/13 19:15:40;;;;;;;23.23;9.88;;;;;18.70;99633.00;;;;10348243;28;20214;-71
2023/10/13 19:20:42;;;;;;;15.55;8.38;;;;;18.70;99645.00;;;;10346914;28;21037;-70
2023/10/13 19:25:46;;;;;;;20.10;9.15;;;;;18.80;99620.00;;;;10349739;28;20225;-71
2023/10/13 19:30:51;;;;;;;18.88;8.77;;;;;18.90;99616.00;;;;10349641;28;20549;-70
2023/10/13 19:35:53;;;;;;;17.30;8.13;;;;;18.80;99621.00;;;;10348120;28;20283;-69
2023/10/13 19:40:55;;;;;;;19.90;7.95;;;;;18.70;99620.00;;;;10350143;28;20208;-69
2023/10/13 19:45:59;;;;;;;16.92;8.05;;;;;18.70;99614.00;;;;10350813;28;21673;-71
2023/10/13 19:51:01;;;;;;;13.32;8.00;;;;;18.60;99608.00;;;;10346566;28;20303;-72
2023/10/13 19:56:04;;;;;;;15.55;8.05;;;;;18.40;99594.00;;;;10378969;28;20198;-69
2023/10/13 20:01:10;;;;;;;15.60;8.00;;;;;18.30;99587.00;;;;10399431;28;20187;-69
2023/10/13 20:06:19;;;;;;;16.25;7.80;;;;;18.30;99587.00;;;;10404195;28;20190;-71
2023/10/13 20:11:28;;;;;;;14.38;7.68;;;;;18.30;99585.00;;;;10401571;28;20215;-70
2023/10/13 20:16:31;;;;;;;20.08;7.38;;;;;18.30;99581.00;;;;10386254;28;20227;-70
2023/10/13 20:21:35;;;;;;;16.95;8.52;;;;;18.30;99584.00;;;;10404782;28;20203;-70
2023/10/13 20:26:41;;;;;;;16.00;7.78;;;;;18.40;99564.00;;;;10408581;28;20859;-69
2023/10/13 20:31:44;;;;;;;17.02;8.43;;;;;18.50;99569.00;;;;10411813;28;20272;-70
2023/10/13 20:36:46;;;;;;;18.10;8.07;;;;;18.50;99584.00;;;;10408377;28;20191;-70
2023/10/13 20:41:52;;;;;;;15.63;8.35;;;;;18.50;99582.00;;;;10409639;28;20877;-70
2023/10/13 20:46:57;;;;;;;14.35;8.18;;;;;18.60;99581.00;;;;10390317;28;20229;-70
2023/10/13 20:52:04;;;;;;;15.05;7.20;;;;;18.70;99581.00;;;;10401567;28;20215;-71
2023/10/13 20:57:08;;;;;;;21.85;8.20;;;;;18.70;99575.00;;;;10402581;28;20679;-70
2023/10/13 21:02:11;;;;;;;15.05;7.63;;;;;18.70;99560.00;;;;10401633;28;20205;-70
2023/10/13 21:07:18;;;;;;;16.27;8.52;;;;;18.70;99545.00;;;;10402336;28;20199;-69
2023/10/13 21:12:20;;;;;;;19.90;8.75;;;;;18.80;99540.00;;;;10391474;28;20223;-71
2023/10/13 21:17:22;;;;;;;14.20;8.23;;;;;18.80;99543.00;;;;10411726;28;20853;-69
2023/10/13 21:22:24;;;;;;;15.25;7.30;;;;;18.80;99531.00;;;;10400811;28;20442;-69
2023/10/13 21:27:26;;;;;;;15.95;7.78;;;;;18.80;99549.00;;;;10402718;28;20218;-70
2023/10/13 21:32:28;;;;;;;18.10;7.55;;;;;18.80;99545.00;;;;10403516;28;20343;-72
2023/10/13 21:37:31;;;;;;;14.60;7.63;;;;;18.80;99538.00;;;;10411579;28;20194;-71
2023/10/13 21:42:33;;;;;;;15.65;7.63;;;;;18.80;99552.00;;;;10404807;28;20206;-69
2023/10/13 21:47:35;;;;;;;13.77;6.40;;;;;18.90;99545.00;;;;10405805;28;20288;-69
2023/10/13 21:52:37;;;;;;;15.13;6.60;;;;;18.80;99556.00;;;;10418265;28;20205;-70
2023/10/13 21:57:38;;;;;;;15.50;6.88;;;;;18.90;99552.00;;;;10414210;28;20276;-70
2023/10/13 22:02:43;;;;;;;22.60;6.72;;;;;18.90;99564.00;;;;10419890;28;20197;-70
2023/10/13 22:07:46;;;;;;;14.07;6.93;;;;;18.90;99560.00;;;;10404138;28;20197;-72
2023/10/13 22:12:49;;;;;;;12.77;6.10;;;;;19.00;99566.00;;;;10408788;28;20218;-69
2023/10/13 22:17:51;;;;;;;11.57;5.63;;;;;19.00;99552.00;;;;10407035;28;20668;-70
2023/10/13 22:22:53;;;;;;;13.13;5.97;;;;;19.00;99553.00;;;;10398855;28;20362;-68
2023/10/13 22:27:55;;;;;;;14.55;5.57;;;;;18.90;99567.00;;;;10415830;28;20615;-69
2023/10/13 22:32:57;;;;;;;10.07;4.63;;;;;18.90;99571.00;;;;10407659;28;20234;-71
2023/10/13 22:37:58;;;;;;;15.98;5.82;;;;;18.80;99557.00;;;;10416154;28;20271;-72
2023/10/13 22:43:01;;;;;;;13.07;5.30;;;;;18.50;99585.00;;;;10406626;28;20222;-72
2023/10/13 22:48:04;;;;;;;11.85;4.68;;;;;18.40;99594.00;;;;10413416;28;20199;-69
2023/10/13 22:53:06;;;;;;;7.22;3.88;;;;;18.30;99588.00;;;;10411383;28;20856;-71
2023/10/13 22:58:09;;;;;;;11.88;3.95;;;;;18.30;99599.00;;;;10403277;28;21048;-70
2023/10/13 23:03:12;;;;;;;9.93;3.95;;;;;18.00;99596.00;;;;10414725;28;20332;-70
2023/10/13 23:08:22;;;;;;;8.10;3.35;;;;;17.80;99610.00;;;;10415846;28;20199;-72
2023/10/13 23:13:24;;;;;;;7.03;2.60;;;;;17.80;99605.00;;;;10410056;28;20200;-70
2023/10/13 23:18:28;;;;;;;10.40;2.22;;;;;17.90;99603.00;;;;10413210;28;20235;-70
2023/10/13 23:23:30;;;;;;;10.98;1.92;;;;;17.90;99602.00;;;;10419040;28;20276;-69
2023/10/13 23:28:34;;;;;;;6.50;2.20;;;;;17.90;99599.00;;;;10421164;28;20214;-69
2023/10/13 23:33:38;;;;;;;6.97;1.90;;;;;17.80;99614.00;;;;10428491;28;20209;-72
2023/10/13 23:38:40;;;;;;;12.38;2.17;;;;;17.60;99649.00;;;;10431651;28;20197;-70
2023/10/13 23:43:45;;;;;;;6.60;1.85;;;;;16.90;99672.00;;;;10418426;28;20700;-70
2023/10/13 23:48:47;;;;;;;7.65;1.63;;;;;16.50;99709.00;;;;10415008;28;20289;-71
2023/10/13 23:53:49;;;;;;;6.05;1.80;;;;;16.30;99725.00;;;;10409330;28;20951;-70
2023/10/13 23:59:00;;;;;;;2.00;0.68;;;;;15.70;99737.00;;;;10416601;28;20808;-71
